createdAt,value
2023-01-28T00:00:30.909Z,1022.23
2023-01-28T00:01:30.918Z,1022.21
2023-01-28T00:02:30.979Z,1022.21
2023-01-28T00:03:30.936Z,1022.18
2023-01-28T00:04:30.872Z,1022.18
2023-01-28T00:05:30.855Z,1022.19
2023-01-28T00:06:30.860Z,1022.15
2023-01-28T00:07:30.854Z,1022.15
2023-01-28T00:08:30.825Z,1022.17
2023-01-28T00:09:30.810Z,1022.14
2023-01-28T00:10:30.803Z,1022.16
2023-01-28T00:11:30.801Z,1022.18
2023-01-28T00:12:30.783Z,1022.14
2023-01-28T00:13:30.774Z,1022.13
2023-01-28T00:14:30.760Z,1022.19
2023-01-28T00:15:30.768Z,1022.18
2023-01-28T00:16:30.847Z,1022.17
2023-01-28T00:17:30.728Z,1022.14
2023-01-28T00:18:30.736Z,1022.13
2023-01-28T00:19:30.704Z,1022.13
2023-01-28T00:20:30.708Z,1022.15
2023-01-28T00:21:30.707Z,1022.17
2023-01-28T00:22:30.679Z,1022.18
2023-01-28T00:23:30.688Z,1022.16
2023-01-28T00:24:30.746Z,1022.20
2023-01-28T00:25:30.652Z,1022.18
2023-01-28T00:26:30.650Z,1022.21
2023-01-28T00:27:30.620Z,1022.23
2023-01-28T00:28:30.614Z,1022.23
2023-01-28T00:29:30.599Z,1022.25
2023-01-28T00:30:30.598Z,1022.28
2023-01-28T00:31:30.621Z,1022.30
2023-01-28T00:32:30.578Z,1022.32
2023-01-28T00:33:30.608Z,1022.32
2023-01-28T00:34:30.573Z,1022.28
2023-01-28T00:35:30.546Z,1022.31
2023-01-28T00:36:30.555Z,1022.38
2023-01-28T00:37:30.521Z,1022.27
2023-01-28T00:38:30.507Z,1022.29
2023-01-28T00:39:30.509Z,1022.30
2023-01-28T00:40:30.485Z,1022.26
2023-01-28T00:41:30.483Z,1022.31
2023-01-28T00:42:30.462Z,1022.35
2023-01-28T00:43:30.462Z,1022.33
2023-01-28T00:44:30.442Z,1022.28
2023-01-28T00:45:30.443Z,1022.32
2023-01-28T00:46:30.454Z,1022.28
2023-01-28T00:47:30.417Z,1022.30
2023-01-28T00:48:30.397Z,1022.33
2023-01-28T00:49:30.385Z,1022.35
2023-01-28T00:50:30.374Z,1022.36
2023-01-28T00:51:30.393Z,1022.42
2023-01-28T00:52:30.354Z,1022.39
2023-01-28T00:53:30.346Z,1022.40
2023-01-28T00:54:30.334Z,1022.42
2023-01-28T00:55:30.348Z,1022.45
2023-01-28T00:56:30.325Z,1022.47
2023-01-28T00:57:30.303Z,1022.45
2023-01-28T00:58:30.298Z,1022.44
2023-01-28T00:59:30.288Z,1022.45
2023-01-28T01:00:30.276Z,1022.43
2023-01-28T01:01:30.308Z,1022.48
2023-01-28T01:02:30.329Z,1022.46
2023-01-28T01:03:30.245Z,1022.49
2023-01-28T01:04:30.252Z,1022.48
2023-01-28T01:05:30.222Z,1022.53
2023-01-28T01:06:30.235Z,1022.49
2023-01-28T01:07:30.195Z,1022.50
2023-01-28T01:08:30.191Z,1022.51
2023-01-28T01:09:30.184Z,1022.51
2023-01-28T01:10:30.163Z,1022.48
2023-01-28T01:11:30.211Z,1022.48
2023-01-28T01:12:30.164Z,1022.49
2023-01-28T01:13:30.138Z,1022.52
2023-01-28T01:14:30.121Z,1022.47
2023-01-28T01:15:30.194Z,1022.48
2023-01-28T01:16:30.125Z,1022.49
2023-01-28T01:17:30.093Z,1022.46
2023-01-28T01:18:30.121Z,1022.48
2023-01-28T01:19:30.073Z,1022.46
2023-01-28T01:20:30.059Z,1022.50
2023-01-28T01:21:30.092Z,1022.53
2023-01-28T01:22:30.043Z,1022.48
2023-01-28T01:23:30.029Z,1022.45
2023-01-28T01:24:30.051Z,1022.47
2023-01-28T01:25:30.011Z,1022.46
2023-01-28T01:26:30.067Z,1022.47
2023-01-28T01:27:30.009Z,1022.47
2023-01-28T01:28:29.987Z,1022.49
2023-01-28T01:29:29.973Z,1022.47
2023-01-28T01:30:29.949Z,1022.43
2023-01-28T01:31:30.051Z,1022.43
2023-01-28T01:32:29.931Z,1022.39
2023-01-28T01:33:29.922Z,1022.47
2023-01-28T01:34:29.926Z,1022.44
2023-01-28T01:35:29.898Z,1022.44
2023-01-28T01:36:29.903Z,1022.47
2023-01-28T01:37:29.895Z,1022.45
2023-01-28T01:38:29.864Z,1022.47
2023-01-28T01:39:29.855Z,1022.45
2023-01-28T01:40:29.848Z,1022.47
2023-01-28T01:41:29.902Z,1022.50
2023-01-28T01:42:29.819Z,1022.48
2023-01-28T01:43:29.831Z,1022.50
2023-01-28T01:44:29.805Z,1022.49
2023-01-28T01:45:29.801Z,1022.47
2023-01-28T01:46:29.803Z,1022.43
2023-01-28T01:47:29.773Z,1022.45
2023-01-28T01:48:29.762Z,1022.51
2023-01-28T01:49:29.755Z,1022.48
2023-01-28T01:50:29.762Z,1022.55
2023-01-28T01:51:29.725Z,1022.55
2023-01-28T01:52:29.725Z,1022.55
2023-01-28T01:53:29.709Z,1022.58
2023-01-28T01:54:29.695Z,1022.58
2023-01-28T01:55:29.694Z,1022.62
2023-01-28T01:56:29.672Z,1022.61
2023-01-28T01:57:29.701Z,1022.63
2023-01-28T01:58:29.652Z,1022.62
2023-01-28T01:59:29.694Z,1022.62
2023-01-28T02:00:29.641Z,1022.62
2023-01-28T02:01:29.620Z,1022.61
2023-01-28T02:02:29.670Z,1022.63
2023-01-28T02:03:29.729Z,1022.62
2023-01-28T02:04:29.584Z,1022.61
2023-01-28T02:05:29.576Z,1022.63
2023-01-28T02:06:29.573Z,1022.64
2023-01-28T02:07:29.626Z,1022.56
2023-01-28T02:08:29.556Z,1022.59
2023-01-28T02:09:29.612Z,1022.55
2023-01-28T02:10:29.520Z,1022.58
2023-01-28T02:11:29.522Z,1022.57
2023-01-28T02:12:29.531Z,1022.56
2023-01-28T02:13:29.497Z,1022.56
2023-01-28T02:14:31.693Z,1022.58
2023-01-28T02:15:29.488Z,1022.58
2023-01-28T02:16:29.488Z,1022.59
2023-01-28T02:17:29.456Z,1022.59
2023-01-28T02:18:29.437Z,1022.56
2023-01-28T02:19:29.427Z,1022.56
2023-01-28T02:20:29.415Z,1022.53
2023-01-28T02:21:29.402Z,1022.57
2023-01-28T02:22:29.420Z,1022.53
2023-01-28T02:23:29.389Z,1022.53
2023-01-28T02:24:29.503Z,1022.51
2023-01-28T02:25:29.361Z,1022.53
2023-01-28T02:26:29.358Z,1022.53
2023-01-28T02:27:29.379Z,1022.55
2023-01-28T02:28:29.333Z,1022.54
2023-01-28T02:29:29.321Z,1022.54
2023-01-28T02:30:29.439Z,1022.60
2023-01-28T02:31:29.512Z,1022.59
2023-01-28T02:32:29.309Z,1022.63
2023-01-28T02:33:29.283Z,1022.54
2023-01-28T02:34:29.272Z,1022.56
2023-01-28T02:35:29.261Z,1022.55
2023-01-28T02:36:29.298Z,1022.60
2023-01-28T02:37:29.262Z,1022.56
2023-01-28T02:38:29.232Z,1022.59
2023-01-28T02:39:29.235Z,1022.56
2023-01-28T02:40:29.204Z,1022.57
2023-01-28T02:41:29.371Z,1022.54
2023-01-28T02:42:29.210Z,1022.53
2023-01-28T02:43:29.231Z,1022.59
2023-01-28T02:44:29.167Z,1022.62
2023-01-28T02:45:29.152Z,1022.64
2023-01-28T02:46:29.172Z,1022.65
2023-01-28T02:47:29.170Z,1022.64
2023-01-28T02:48:29.117Z,1022.65
2023-01-28T02:49:29.110Z,1022.66
2023-01-28T02:50:29.097Z,1022.61
2023-01-28T02:51:29.089Z,1022.61
2023-01-28T02:52:29.097Z,1022.58
2023-01-28T02:53:29.069Z,1022.55
2023-01-28T02:54:29.068Z,1022.53
2023-01-28T02:55:29.079Z,1022.51
2023-01-28T02:56:29.029Z,1022.55
2023-01-28T02:57:29.041Z,1022.55
2023-01-28T02:58:29.008Z,1022.54
2023-01-28T02:59:29.000Z,1022.58
2023-01-28T03:00:28.987Z,1022.59
2023-01-28T03:01:29.008Z,1022.60
2023-01-28T03:02:29.000Z,1022.63
2023-01-28T03:03:28.984Z,1022.59
2023-01-28T03:04:28.964Z,1022.59
2023-01-28T03:05:28.937Z,1022.60
2023-01-28T03:06:28.923Z,1022.63
2023-01-28T03:07:28.926Z,1022.56
2023-01-28T03:08:28.903Z,1022.63
2023-01-28T03:09:28.900Z,1022.60
2023-01-28T03:10:28.889Z,1022.57
2023-01-28T03:11:28.870Z,1022.58
2023-01-28T03:12:28.938Z,1022.61
2023-01-28T03:13:28.852Z,1022.62
2023-01-28T03:14:28.842Z,1022.66
2023-01-28T03:15:28.892Z,1022.70
2023-01-28T03:16:28.818Z,1022.68
2023-01-28T03:17:28.828Z,1022.71
2023-01-28T03:18:28.796Z,1022.70
2023-01-28T03:19:28.814Z,1022.66
2023-01-28T03:20:28.777Z,1022.68
2023-01-28T03:21:28.773Z,1022.70
2023-01-28T03:22:28.769Z,1022.66
2023-01-28T03:23:28.751Z,1022.67
2023-01-28T03:24:28.774Z,1022.68
2023-01-28T03:25:28.729Z,1022.64
2023-01-28T03:26:28.725Z,1022.67
2023-01-28T03:27:28.716Z,1022.62
2023-01-28T03:28:28.690Z,1022.69
2023-01-28T03:29:28.687Z,1022.61
2023-01-28T03:30:28.670Z,1022.62
2023-01-28T03:31:28.660Z,1022.62
2023-01-28T03:32:28.750Z,1022.61
2023-01-28T03:33:28.638Z,1022.59
2023-01-28T03:34:28.634Z,1022.62
2023-01-28T03:35:28.635Z,1022.62
2023-01-28T03:36:28.605Z,1022.63
2023-01-28T03:37:28.620Z,1022.61
2023-01-28T03:38:28.583Z,1022.58
2023-01-28T03:39:28.572Z,1022.63
2023-01-28T03:40:28.565Z,1022.60
2023-01-28T03:41:28.555Z,1022.63
2023-01-28T03:42:28.573Z,1022.57
2023-01-28T03:43:28.547Z,1022.62
2023-01-28T03:44:28.526Z,1022.60
2023-01-28T03:45:28.539Z,1022.58
2023-01-28T03:46:28.526Z,1022.60
2023-01-28T03:47:28.510Z,1022.61
2023-01-28T03:48:28.475Z,1022.60
2023-01-28T03:49:28.468Z,1022.58
2023-01-28T03:50:28.456Z,1022.60
2023-01-28T03:51:28.464Z,1022.59
2023-01-28T03:52:28.446Z,1022.61
2023-01-28T03:53:28.440Z,1022.59
2023-01-28T03:54:28.426Z,1022.52
2023-01-28T03:55:28.407Z,1022.56
2023-01-28T03:56:28.391Z,1022.61
2023-01-28T03:57:28.403Z,1022.63
2023-01-28T03:58:28.373Z,1022.59
2023-01-28T03:59:28.364Z,1022.56
2023-01-28T04:00:36.432Z,1022.59
2023-01-28T04:01:28.388Z,1022.58
2023-01-28T04:02:28.373Z,1022.59
2023-01-28T04:03:28.318Z,1022.59
2023-01-28T04:04:28.318Z,1022.59
2023-01-28T04:05:28.295Z,1022.55
2023-01-28T04:06:28.284Z,1022.54
2023-01-28T04:07:28.324Z,1022.58
2023-01-28T04:08:28.274Z,1022.57
2023-01-28T04:09:28.254Z,1022.55
2023-01-28T04:10:28.243Z,1022.62
2023-01-28T04:11:28.234Z,1022.56
2023-01-28T04:12:28.248Z,1022.58
2023-01-28T04:13:28.213Z,1022.55
2023-01-28T04:14:28.207Z,1022.61
2023-01-28T04:15:28.198Z,1022.57
2023-01-28T04:16:28.354Z,1022.60
2023-01-28T04:17:28.190Z,1022.57
2023-01-28T04:18:28.159Z,1022.64
2023-01-28T04:19:28.157Z,1022.63
2023-01-28T04:20:28.135Z,1022.62
2023-01-28T04:21:28.123Z,1022.58
2023-01-28T04:22:28.127Z,1022.58
2023-01-28T04:23:28.120Z,1022.65
2023-01-28T04:24:28.182Z,1022.62
2023-01-28T04:25:28.086Z,1022.58
2023-01-28T04:26:28.074Z,1022.63
2023-01-28T04:27:28.074Z,1022.64
2023-01-28T04:28:28.056Z,1022.64
2023-01-28T04:29:28.045Z,1022.59
2023-01-28T04:30:28.132Z,1022.63
2023-01-28T04:31:28.069Z,1022.63
2023-01-28T04:32:28.002Z,1022.66
2023-01-28T04:33:28.013Z,1022.65
2023-01-28T04:34:28.003Z,1022.69
2023-01-28T04:35:27.982Z,1022.71
2023-01-28T04:36:27.976Z,1022.66
2023-01-28T04:37:27.959Z,1022.69
2023-01-28T04:38:27.962Z,1022.67
2023-01-28T04:39:27.960Z,1022.68
2023-01-28T04:40:27.930Z,1022.71
2023-01-28T04:41:27.918Z,1022.68
2023-01-28T04:42:27.929Z,1022.66
2023-01-28T04:43:27.915Z,1022.68
2023-01-28T04:44:27.879Z,1022.67
2023-01-28T04:45:27.872Z,1022.67
2023-01-28T04:46:27.948Z,1022.67
2023-01-28T04:47:27.848Z,1022.67
2023-01-28T04:48:27.851Z,1022.70
2023-01-28T04:49:27.834Z,1022.67
2023-01-28T04:50:27.819Z,1022.66
2023-01-28T04:51:27.805Z,1022.65
2023-01-28T04:52:27.813Z,1022.60
2023-01-28T04:53:27.801Z,1022.62
2023-01-28T04:54:27.773Z,1022.64
2023-01-28T04:55:27.791Z,1022.61
2023-01-28T04:56:27.772Z,1022.63
2023-01-28T04:57:27.740Z,1022.59
2023-01-28T04:58:27.753Z,1022.61
2023-01-28T04:59:27.716Z,1022.61
2023-01-28T05:00:27.706Z,1022.61
2023-01-28T05:01:27.701Z,1022.59
2023-01-28T05:02:27.687Z,1022.62
2023-01-28T05:03:27.698Z,1022.62
2023-01-28T05:04:27.669Z,1022.60
2023-01-28T05:05:27.653Z,1022.64
2023-01-28T05:06:27.691Z,1022.62
2023-01-28T05:07:27.625Z,1022.63
2023-01-28T05:08:27.647Z,1022.70
2023-01-28T05:09:27.621Z,1022.70
2023-01-28T05:10:27.612Z,1022.74
2023-01-28T05:11:27.607Z,1022.79
2023-01-28T05:12:27.595Z,1022.77
2023-01-28T05:13:27.583Z,1022.79
2023-01-28T05:14:27.559Z,1022.81
2023-01-28T05:15:27.544Z,1022.76
2023-01-28T05:16:27.540Z,1022.86
2023-01-28T05:17:27.587Z,1022.81
2023-01-28T05:18:27.537Z,1022.81
2023-01-28T05:19:27.504Z,1022.86
2023-01-28T05:20:27.497Z,1022.92
2023-01-28T05:21:27.486Z,1022.87
2023-01-28T05:22:27.485Z,1022.96
2023-01-28T05:23:27.484Z,1022.95
2023-01-28T05:24:27.545Z,1022.99
2023-01-28T05:25:27.435Z,1022.99
2023-01-28T05:26:27.440Z,1022.97
2023-01-28T05:27:27.440Z,1022.97
2023-01-28T05:28:27.451Z,1022.97
2023-01-28T05:29:27.414Z,1022.95
2023-01-28T05:30:27.437Z,1022.94
2023-01-28T05:31:27.374Z,1022.95
2023-01-28T05:32:27.392Z,1022.97
2023-01-28T05:33:27.372Z,1022.96
2023-01-28T05:34:27.350Z,1022.92
2023-01-28T05:35:27.332Z,1022.95
2023-01-28T05:36:27.320Z,1022.91
2023-01-28T05:37:27.307Z,1022.92
2023-01-28T05:38:27.316Z,1022.92
2023-01-28T05:39:27.286Z,1022.87
2023-01-28T05:40:27.282Z,1022.91
2023-01-28T05:41:27.267Z,1022.93
2023-01-28T05:42:27.258Z,1022.90
2023-01-28T05:43:27.286Z,1022.88
2023-01-28T05:44:27.241Z,1022.87
2023-01-28T05:45:27.251Z,1022.87
2023-01-28T05:46:27.213Z,1022.85
2023-01-28T05:47:27.205Z,1022.86
2023-01-28T05:48:27.264Z,1022.82
2023-01-28T05:49:27.182Z,1022.80
2023-01-28T05:50:27.174Z,1022.82
2023-01-28T05:51:27.161Z,1022.80
2023-01-28T05:52:27.150Z,1022.84
2023-01-28T05:53:27.218Z,1022.84
2023-01-28T05:54:27.129Z,1022.85
2023-01-28T05:55:27.118Z,1022.82
2023-01-28T05:56:27.111Z,1022.84
2023-01-28T05:57:27.132Z,1022.89
2023-01-28T05:58:27.102Z,1022.89
2023-01-28T05:59:27.092Z,1022.87
2023-01-28T06:00:27.085Z,1022.89
2023-01-28T06:01:27.063Z,1022.86
2023-01-28T06:02:27.200Z,1022.85
2023-01-28T06:03:27.045Z,1022.83
2023-01-28T06:04:27.102Z,1022.84
2023-01-28T06:05:27.034Z,1022.87
2023-01-28T06:06:27.005Z,1022.86
2023-01-28T06:07:26.990Z,1022.87
2023-01-28T06:08:26.996Z,1022.84
2023-01-28T06:09:26.969Z,1022.83
2023-01-28T06:10:26.964Z,1022.79
2023-01-28T06:11:26.949Z,1022.79
2023-01-28T06:12:26.949Z,1022.81
2023-01-28T06:13:26.950Z,1022.87
2023-01-28T06:14:26.942Z,1022.94
2023-01-28T06:15:26.922Z,1022.91
2023-01-28T06:16:26.891Z,1022.94
2023-01-28T06:17:26.883Z,1022.85
2023-01-28T06:18:26.894Z,1022.91
2023-01-28T06:19:26.859Z,1022.95
2023-01-28T06:20:26.854Z,1022.91
2023-01-28T06:21:29.690Z,1022.95
2023-01-28T06:22:26.837Z,1022.94
2023-01-28T06:23:26.832Z,1022.94
2023-01-28T06:24:26.828Z,1022.91
2023-01-28T06:25:26.797Z,1022.89
2023-01-28T06:26:26.789Z,1022.89
2023-01-28T06:27:26.776Z,1022.87
2023-01-28T06:28:26.789Z,1022.89
2023-01-28T06:29:26.759Z,1022.88
2023-01-28T06:30:26.741Z,1022.94
2023-01-28T06:31:26.756Z,1022.93
2023-01-28T06:32:26.802Z,1022.94
2023-01-28T06:33:26.725Z,1022.99
2023-01-28T06:34:26.697Z,1022.95
2023-01-28T06:35:26.688Z,1022.95
2023-01-28T06:36:26.677Z,1022.93
2023-01-28T06:37:26.665Z,1022.91
2023-01-28T06:38:26.674Z,1022.94
2023-01-28T06:39:26.643Z,1022.91
2023-01-28T06:40:26.661Z,1023.02
2023-01-28T06:41:26.626Z,1023.01
2023-01-28T06:42:26.611Z,1023.03
2023-01-28T06:43:26.621Z,1023.06
2023-01-28T06:44:26.593Z,1023.05
2023-01-28T06:45:26.594Z,1023.07
2023-01-28T06:46:26.619Z,1022.99
2023-01-28T06:47:26.574Z,1023.01
2023-01-28T06:48:26.568Z,1023.03
2023-01-28T06:49:26.537Z,1023.00
2023-01-28T06:50:26.558Z,1023.03
2023-01-28T06:51:26.511Z,1023.07
2023-01-28T06:52:26.558Z,1023.04
2023-01-28T06:53:26.508Z,1023.06
2023-01-28T06:54:26.478Z,1023.05
2023-01-28T06:55:26.465Z,1023.10
2023-01-28T06:56:26.464Z,1023.10
2023-01-28T06:57:26.444Z,1023.10
2023-01-28T06:58:26.467Z,1023.08
2023-01-28T06:59:26.426Z,1023.05
2023-01-28T07:00:26.424Z,1023.04
2023-01-28T07:01:26.470Z,1023.02
2023-01-28T07:02:27.760Z,1023.07
2023-01-28T07:03:26.422Z,1023.07
2023-01-28T07:04:26.373Z,1023.06
2023-01-28T07:05:26.361Z,1023.07
2023-01-28T07:06:26.363Z,1023.07
2023-01-28T07:07:26.338Z,1023.09
2023-01-28T07:08:26.345Z,1023.12
2023-01-28T07:09:26.323Z,1023.09
2023-01-28T07:10:26.308Z,1023.12
2023-01-28T07:11:26.297Z,1023.11
2023-01-28T07:12:26.288Z,1023.14
2023-01-28T07:13:26.291Z,1023.12
2023-01-28T07:14:26.264Z,1023.14
2023-01-28T07:15:26.271Z,1023.14
2023-01-28T07:16:26.242Z,1023.16
2023-01-28T07:17:26.296Z,1023.13
2023-01-28T07:18:26.238Z,1023.14
2023-01-28T07:19:26.229Z,1023.13
2023-01-28T07:20:26.201Z,1023.18
2023-01-28T07:21:26.186Z,1023.22
2023-01-28T07:22:26.197Z,1023.27
2023-01-28T07:23:28.841Z,1023.24
2023-01-28T07:24:26.180Z,1023.24
2023-01-28T07:25:26.143Z,1023.18
2023-01-28T07:26:26.135Z,1023.21
2023-01-28T07:27:26.127Z,1023.19
2023-01-28T07:28:26.129Z,1023.13
2023-01-28T07:29:26.106Z,1023.14
2023-01-28T07:30:26.100Z,1023.16
2023-01-28T07:31:26.221Z,1023.16
2023-01-28T07:32:26.082Z,1023.20
2023-01-28T07:33:26.082Z,1023.14
2023-01-28T07:34:26.047Z,1023.16
2023-01-28T07:35:26.057Z,1023.19
2023-01-28T07:36:26.032Z,1023.18
2023-01-28T07:37:26.016Z,1023.15
2023-01-28T07:38:26.017Z,1023.18
2023-01-28T07:39:25.995Z,1023.19
2023-01-28T07:40:25.984Z,1023.17
2023-01-28T07:41:25.970Z,1023.16
2023-01-28T07:42:25.962Z,1023.16
2023-01-28T07:43:25.969Z,1023.10
2023-01-28T07:44:25.944Z,1023.09
2023-01-28T07:45:25.951Z,1023.10
2023-01-28T07:46:25.920Z,1023.18
2023-01-28T07:47:25.996Z,1023.14
2023-01-28T07:48:25.925Z,1023.16
2023-01-28T07:49:25.884Z,1023.18
2023-01-28T07:50:25.891Z,1023.18
2023-01-28T07:51:25.915Z,1023.17
2023-01-28T07:52:25.854Z,1023.20
2023-01-28T07:53:25.856Z,1023.21
2023-01-28T07:54:25.834Z,1023.24
2023-01-28T07:55:25.833Z,1023.20
2023-01-28T07:56:25.809Z,1023.23
2023-01-28T07:57:25.804Z,1023.23
2023-01-28T07:58:25.809Z,1023.23
2023-01-28T07:59:25.797Z,1023.22
2023-01-28T08:00:25.766Z,1023.24
2023-01-28T08:01:25.787Z,1023.20
2023-01-28T08:02:25.749Z,1023.19
2023-01-28T08:03:25.750Z,1023.22
2023-01-28T08:04:25.833Z,1023.20
2023-01-28T08:05:25.830Z,1023.17
2023-01-28T08:06:25.704Z,1023.21
2023-01-28T08:07:25.711Z,1023.25
2023-01-28T08:08:25.699Z,1023.28
2023-01-28T08:09:25.669Z,1023.27
2023-01-28T08:10:25.665Z,1023.29
2023-01-28T08:11:25.658Z,1023.28
2023-01-28T08:12:25.641Z,1023.27
2023-01-28T08:13:25.660Z,1023.36
2023-01-28T08:14:25.624Z,1023.32
2023-01-28T08:15:25.623Z,1023.35
2023-01-28T08:16:25.600Z,1023.35
2023-01-28T08:17:25.612Z,1023.40
2023-01-28T08:18:25.617Z,1023.41
2023-01-28T08:19:25.568Z,1023.38
2023-01-28T08:20:25.558Z,1023.38
2023-01-28T08:21:25.541Z,1023.42
2023-01-28T08:22:25.534Z,1023.41
2023-01-28T08:23:25.535Z,1023.46
2023-01-28T08:24:25.548Z,1023.44
2023-01-28T08:25:25.492Z,1023.39
2023-01-28T08:26:25.486Z,1023.42
2023-01-28T08:27:25.497Z,1023.42
2023-01-28T08:28:25.480Z,1023.40
2023-01-28T08:29:25.466Z,1023.37
2023-01-28T08:30:25.492Z,1023.41
2023-01-28T08:31:25.499Z,1023.45
2023-01-28T08:32:25.431Z,1023.49
2023-01-28T08:33:25.412Z,1023.47
2023-01-28T08:34:25.422Z,1023.51
2023-01-28T08:35:25.387Z,1023.50
2023-01-28T08:36:25.389Z,1023.54
2023-01-28T08:37:25.365Z,1023.51
2023-01-28T08:38:25.362Z,1023.55
2023-01-28T08:39:25.379Z,1023.57
2023-01-28T08:40:25.430Z,1023.64
2023-01-28T08:41:25.328Z,1023.63
2023-01-28T08:42:25.312Z,1023.67
2023-01-28T08:43:25.309Z,1023.63
2023-01-28T08:44:25.324Z,1023.61
2023-01-28T08:45:27.677Z,1023.59
2023-01-28T08:46:25.307Z,1023.58
2023-01-28T08:47:25.281Z,1023.56
2023-01-28T08:48:25.250Z,1023.57
2023-01-28T08:49:25.263Z,1023.57
2023-01-28T08:50:25.231Z,1023.59
2023-01-28T08:51:25.215Z,1023.58
2023-01-28T08:52:25.260Z,1023.60
2023-01-28T08:53:25.197Z,1023.57
2023-01-28T08:54:25.210Z,1023.57
2023-01-28T08:55:25.220Z,1023.56
2023-01-28T08:56:25.163Z,1023.61
2023-01-28T08:57:25.158Z,1023.59
2023-01-28T08:58:25.142Z,1023.63
2023-01-28T08:59:25.145Z,1023.65
2023-01-28T09:00:25.344Z,1023.68
2023-01-28T09:01:25.134Z,1023.68
2023-01-28T09:02:31.390Z,1023.70
2023-01-28T09:03:26.117Z,1023.66
2023-01-28T09:04:25.101Z,1023.64
2023-01-28T09:05:25.065Z,1023.65
2023-01-28T09:06:25.059Z,1023.70
2023-01-28T09:07:25.044Z,1023.67
2023-01-28T09:08:25.383Z,1023.66
2023-01-28T09:09:25.038Z,1023.70
2023-01-28T09:10:25.011Z,1023.72
2023-01-28T09:11:25.018Z,1023.74
2023-01-28T09:12:25.010Z,1023.76
2023-01-28T09:13:24.980Z,1023.74
2023-01-28T09:14:24.985Z,1023.80
2023-01-28T09:15:24.959Z,1023.80
2023-01-28T09:16:25.062Z,1023.82
2023-01-28T09:17:24.937Z,1023.80
2023-01-28T09:18:24.931Z,1023.78
2023-01-28T09:19:24.928Z,1023.79
2023-01-28T09:20:24.925Z,1023.80
2023-01-28T09:21:24.893Z,1023.85
2023-01-28T09:22:24.885Z,1023.89
2023-01-28T09:23:24.877Z,1023.94
2023-01-28T09:24:24.928Z,1023.94
2023-01-28T09:25:24.848Z,1023.98
2023-01-28T09:26:24.837Z,1023.98
2023-01-28T09:27:24.859Z,1023.93
2023-01-28T09:28:24.818Z,1023.89
2023-01-28T09:29:24.827Z,1023.93
2023-01-28T09:30:25.015Z,1023.90
2023-01-28T09:31:24.936Z,1024.00
2023-01-28T09:32:24.809Z,1024.00
2023-01-28T09:33:24.779Z,1023.97
2023-01-28T09:34:24.764Z,1023.96
2023-01-28T09:35:24.763Z,1023.96
2023-01-28T09:36:24.748Z,1023.96
2023-01-28T09:37:24.720Z,1023.99
2023-01-28T09:38:24.707Z,1024.01
2023-01-28T09:39:24.718Z,1024.01
2023-01-28T09:40:24.688Z,1023.99
2023-01-28T09:41:24.688Z,1024.00
2023-01-28T09:42:24.669Z,1023.97
2023-01-28T09:43:24.677Z,1023.93
2023-01-28T09:44:24.659Z,1023.88
2023-01-28T09:45:24.658Z,1023.96
2023-01-28T09:46:24.812Z,1023.99
2023-01-28T09:47:24.615Z,1024.03
2023-01-28T09:48:24.600Z,1024.02
2023-01-28T09:49:24.609Z,1024.03
2023-01-28T09:50:24.584Z,1024.02
2023-01-28T09:51:24.580Z,1024.04
2023-01-28T09:52:24.560Z,1024.01
2023-01-28T09:53:24.559Z,1024.07
2023-01-28T09:54:24.554Z,1024.03
2023-01-28T09:55:24.532Z,1024.04
2023-01-28T09:56:24.520Z,1024.06
2023-01-28T09:57:24.508Z,1024.05
2023-01-28T09:58:24.511Z,1024.07
2023-01-28T09:59:24.523Z,1024.10
2023-01-28T10:00:24.489Z,1024.09
2023-01-28T10:01:32.495Z,1024.10
2023-01-28T10:02:24.446Z,1024.10
2023-01-28T10:03:24.506Z,1024.11
2023-01-28T10:04:24.440Z,1024.12
2023-01-28T10:05:24.419Z,1024.03
2023-01-28T10:06:24.421Z,1024.08
2023-01-28T10:07:24.394Z,1024.05
2023-01-28T10:08:24.412Z,1024.05
2023-01-28T10:09:24.382Z,1024.08
2023-01-28T10:10:24.409Z,1024.06
2023-01-28T10:11:24.356Z,1024.00
2023-01-28T10:12:24.370Z,1023.99
2023-01-28T10:13:24.335Z,1023.96
2023-01-28T10:14:24.345Z,1023.95
2023-01-28T10:15:24.344Z,1023.96
2023-01-28T10:16:24.296Z,1024.01
2023-01-28T10:17:24.333Z,1024.02
2023-01-28T10:18:24.325Z,1024.00
2023-01-28T10:19:24.274Z,1023.99
2023-01-28T10:20:24.287Z,1023.96
2023-01-28T10:21:24.245Z,1023.97
2023-01-28T10:22:24.243Z,1023.96
2023-01-28T10:23:24.222Z,1023.90
2023-01-28T10:24:26.060Z,1023.94
2023-01-28T10:25:24.204Z,1024.00
2023-01-28T10:26:24.195Z,1024.02
2023-01-28T10:27:24.191Z,1024.02
2023-01-28T10:28:24.171Z,1024.04
2023-01-28T10:29:24.211Z,1024.02
2023-01-28T10:30:24.151Z,1023.98
2023-01-28T10:31:24.206Z,1023.95
2023-01-28T10:32:24.126Z,1023.94
2023-01-28T10:33:24.122Z,1023.93
2023-01-28T10:34:24.119Z,1023.90
2023-01-28T10:35:24.105Z,1023.90
2023-01-28T10:36:24.100Z,1023.87
2023-01-28T10:37:24.084Z,1023.83
2023-01-28T10:38:24.066Z,1023.82
2023-01-28T10:39:24.061Z,1023.79
2023-01-28T10:40:24.043Z,1023.78
2023-01-28T10:41:24.027Z,1023.82
2023-01-28T10:42:24.030Z,1023.80
2023-01-28T10:43:24.009Z,1023.82
2023-01-28T10:44:24.013Z,1023.85
2023-01-28T10:45:23.991Z,1023.86
2023-01-28T10:46:23.988Z,1023.90
2023-01-28T10:47:23.980Z,1023.91
2023-01-28T10:48:23.954Z,1023.89
2023-01-28T10:49:23.950Z,1023.82
2023-01-28T10:50:23.944Z,1023.82
2023-01-28T10:51:23.925Z,1023.80
2023-01-28T10:52:23.933Z,1023.84
2023-01-28T10:53:25.653Z,1023.82
2023-01-28T10:54:23.908Z,1023.87
2023-01-28T10:55:23.899Z,1023.84
2023-01-28T10:56:23.894Z,1023.86
2023-01-28T10:57:23.859Z,1023.87
2023-01-28T10:58:23.848Z,1023.94
2023-01-28T10:59:23.846Z,1023.91
2023-01-28T11:00:23.829Z,1023.87
2023-01-28T11:01:23.856Z,1023.84
2023-01-28T11:02:23.814Z,1023.85
2023-01-28T11:03:23.809Z,1023.83
2023-01-28T11:04:23.788Z,1023.86
2023-01-28T11:05:23.773Z,1023.85
2023-01-28T11:06:23.757Z,1023.83
2023-01-28T11:07:23.751Z,1023.88
2023-01-28T11:08:23.736Z,1023.88
2023-01-28T11:09:23.736Z,1023.84
2023-01-28T11:10:23.721Z,1023.83
2023-01-28T11:11:23.710Z,1023.83
2023-01-28T11:12:23.695Z,1023.81
2023-01-28T11:13:23.725Z,1023.79
2023-01-28T11:14:23.684Z,1023.82
2023-01-28T11:15:23.675Z,1023.82
2023-01-28T11:16:23.651Z,1023.84
2023-01-28T11:17:23.711Z,1023.82
2023-01-28T11:18:23.632Z,1023.79
2023-01-28T11:20:23.617Z,1023.80
2023-01-28T11:21:23.597Z,1023.77
2023-01-28T11:22:23.590Z,1023.82
2023-01-28T11:23:23.586Z,1023.83
2023-01-28T11:24:23.599Z,1023.81
2023-01-28T11:25:23.583Z,1023.78
2023-01-28T11:26:23.544Z,1023.76
2023-01-28T11:27:23.532Z,1023.72
2023-01-28T11:28:23.521Z,1023.71
2023-01-28T11:29:23.519Z,1023.72
2023-01-28T11:30:23.519Z,1023.67
2023-01-28T11:31:23.548Z,1023.71
2023-01-28T11:32:23.478Z,1023.69
2023-01-28T11:33:23.467Z,1023.71
2023-01-28T11:34:23.454Z,1023.65
2023-01-28T11:35:23.504Z,1023.64
2023-01-28T11:36:23.444Z,1023.56
2023-01-28T11:37:23.427Z,1023.62
2023-01-28T11:38:23.419Z,1023.57
2023-01-28T11:39:23.425Z,1023.64
2023-01-28T11:40:23.991Z,1023.64
2023-01-28T11:41:23.387Z,1023.61
2023-01-28T11:42:23.371Z,1023.63
2023-01-28T11:43:23.361Z,1023.62
2023-01-28T11:44:23.359Z,1023.63
2023-01-28T11:45:23.350Z,1023.59
2023-01-28T11:46:23.340Z,1023.54
2023-01-28T11:47:23.337Z,1023.56
2023-01-28T11:48:23.325Z,1023.54
2023-01-28T11:49:23.296Z,1023.54
2023-01-28T11:50:23.314Z,1023.49
2023-01-28T11:51:23.295Z,1023.53
2023-01-28T11:52:23.269Z,1023.52
2023-01-28T11:53:23.271Z,1023.57
2023-01-28T11:54:23.241Z,1023.57
2023-01-28T11:55:23.272Z,1023.57
2023-01-28T11:56:23.228Z,1023.53
2023-01-28T11:57:23.215Z,1023.47
2023-01-28T11:58:23.198Z,1023.42
2023-01-28T11:59:23.189Z,1023.40
2023-01-28T12:00:23.187Z,1023.38
2023-01-28T12:01:23.171Z,1023.36
2023-01-28T12:02:23.199Z,1023.41
2023-01-28T12:03:23.154Z,1023.46
2023-01-28T12:04:23.250Z,1023.49
2023-01-28T12:05:23.164Z,1023.50
2023-01-28T12:06:23.108Z,1023.54